METAR AND TAF INFORMATION
METAR FOR SUMU
ADDS - METARS form results

(0008 UTC 22 April 2021)
Data provider http://aviationweather.gov/metar/data/
 
METAR text: SUMU 220000Z 07009KT CAVOK 20/15 Q1019 NOSIG
Conditions at: SUMU (CARRASCO (CIV/MI, UY) observed 0000 UTC 22 April 2021
Temperature: 20.0°C (68°F)
Dewpoint: 15.0°C (59°F) [RH = 73%]
Pressure (altimeter): 30.09 inches Hg (1019.0 mb)
Winds: from the ENE (70 degrees) at 10 MPH (9 knots; 4.6 m/s)
Visibility: 6 or more miles (10+ km)
Ceiling: ceiling and visibility are OK
Clouds: unknown
Weather: no significant weather observed at this time

Forecast for: SUMU (CARRASCO (CIV/MI, UY)
Text: TAF SUMU 212330Z 2200/2224 07012KT CAVOK TX26/2218Z TN16/2210Z
Forecast period: 0000 UTC 22 April 2021 to 0000 UTC 23 April 2021
Forecast type: FROM: standard forecast or significant change
Winds: from the ENE (70 degrees) at 14 MPH (12 knots; 6.2 m/s)
Visibility: 6 or more miles (10+ km)
Ceiling: unknown
Clouds: missing
Weather: no significant weather forecast for this period

 AIRPORT MAP

 RUNWAY INFORMATION

 AIRPORT FREQUENCIES
Type APP Name APP Frequency 119.2 MHZ
Type MISC Name CXK CARRAS Frequency 545.1 MHZ
Type PTD Name A/F CARRAS Frequency 831.5 MHZ
Type RDO Name RDO Frequency 553.5 MHZ
Type TWR Name TWR Frequency 118.1 MHZ

 AIRPORT NEAR NAVIGATION AIDS